sensor_id;sensor_type;location;lat;lon;timestamp;pressure;altitude;pressure_sealevel;temperature;humidity
30682;BME280;17439;48.092;11.842;2024-03-07T00:00:13;95749.06;;;6.64;74.34
30682;BME280;17439;48.092;11.842;2024-03-07T00:02:41;95749.34;;;6.63;74.25
30682;BME280;17439;48.092;11.842;2024-03-07T00:05:08;95745.06;;;6.62;74.15
30682;BME280;17439;48.092;11.842;2024-03-07T00:07:36;95749.63;;;6.61;74.30
30682;BME280;17439;48.092;11.842;2024-03-07T00:10:03;95749.88;;;6.60;74.20
30682;BME280;17439;48.092;11.842;2024-03-07T00:12:30;95748.31;;;6.59;74.36
30682;BME280;17439;48.092;11.842;2024-03-07T00:14:57;95741.81;;;6.60;74.37
30682;BME280;17439;48.092;11.842;2024-03-07T00:17:23;95743.19;;;6.57;74.65
30682;BME280;17439;48.092;11.842;2024-03-07T00:19:50;95742.09;;;6.58;74.63
30682;BME280;17439;48.092;11.842;2024-03-07T00:22:17;95741.56;;;6.56;74.70
30682;BME280;17439;48.092;11.842;2024-03-07T00:24:44;95752.34;;;6.56;74.56
30682;BME280;17439;48.092;11.842;2024-03-07T00:27:10;95746.94;;;6.56;74.55
30682;BME280;17439;48.092;11.842;2024-03-07T00:29:37;95745.06;;;6.57;74.57
30682;BME280;17439;48.092;11.842;2024-03-07T00:32:04;95746.69;;;6.58;74.76
30682;BME280;17439;48.092;11.842;2024-03-07T00:34:31;95745.59;;;6.59;74.64
30682;BME280;17439;48.092;11.842;2024-03-07T00:36:57;95743.19;;;6.57;74.53
30682;BME280;17439;48.092;11.842;2024-03-07T00:39:25;95743.97;;;6.58;74.46
30682;BME280;17439;48.092;11.842;2024-03-07T00:41:51;95748.56;;;6.57;74.47
30682;BME280;17439;48.092;11.842;2024-03-07T00:44:18;95748.56;;;6.57;74.65
30682;BME280;17439;48.092;11.842;2024-03-07T00:46:45;95748.84;;;6.56;74.70
30682;BME280;17439;48.092;11.842;2024-03-07T00:49:12;95744.78;;;6.58;74.62
30682;BME280;17439;48.092;11.842;2024-03-07T00:51:38;95735.09;;;6.57;74.52
30682;BME280;17439;48.092;11.842;2024-03-07T00:54:06;95744.25;;;6.56;74.60
30682;BME280;17439;48.092;11.842;2024-03-07T00:56:32;95733.75;;;6.54;74.68
30682;BME280;17439;48.092;11.842;2024-03-07T00:58:59;95738.06;;;6.56;74.48
30682;BME280;17439;48.092;11.842;2024-03-07T01:01:26;95730.00;;;6.56;74.57
30682;BME280;17439;48.092;11.842;2024-03-07T01:03:53;95721.38;;;6.53;74.41
30682;BME280;17439;48.092;11.842;2024-03-07T01:06:20;95728.66;;;6.53;74.41
30682;BME280;17439;48.092;11.842;2024-03-07T01:08:46;95725.72;;;6.49;74.32
30682;BME280;17439;48.092;11.842;2024-03-07T01:11:13;95720.31;;;6.49;74.35
30682;BME280;17439;48.092;11.842;2024-03-07T01:13:41;95719.78;;;6.47;74.45
30682;BME280;17439;48.092;11.842;2024-03-07T01:16:08;95717.38;;;6.46;74.54
30682;BME280;17439;48.092;11.842;2024-03-07T01:18:35;95715.25;;;6.43;74.48
30682;BME280;17439;48.092;11.842;2024-03-07T01:21:03;95716.31;;;6.42;74.64
30682;BME280;17439;48.092;11.842;2024-03-07T01:23:30;95710.41;;;6.40;74.54
30682;BME280;17439;48.092;11.842;2024-03-07T01:25:58;95721.19;;;6.40;74.77
30682;BME280;17439;48.092;11.842;2024-03-07T01:28:25;95709.59;;;6.39;74.59
30682;BME280;17439;48.092;11.842;2024-03-07T01:30:52;95714.47;;;6.37;74.76
30682;BME280;17439;48.092;11.842;2024-03-07T01:33:19;95714.47;;;6.37;74.63
30682;BME280;17439;48.092;11.842;2024-03-07T01:35:46;95713.94;;;6.35;74.90
30682;BME280;17439;48.092;11.842;2024-03-07T01:38:14;95701.56;;;6.34;74.75
30682;BME280;17439;48.092;11.842;2024-03-07T01:40:42;95705.03;;;6.34;74.80
30682;BME280;17439;48.092;11.842;2024-03-07T01:43:09;95694.56;;;6.28;73.10
30682;BME280;17439;48.092;11.842;2024-03-07T01:45:39;95695.66;;;6.32;74.06
30682;BME280;17439;48.092;11.842;2024-03-07T01:48:09;95694.81;;;6.31;74.23
30682;BME280;17439;48.092;11.842;2024-03-07T01:50:36;95689.72;;;6.30;74.78
30682;BME280;17439;48.092;11.842;2024-03-07T01:53:03;95686.50;;;6.28;74.92
30682;BME280;17439;48.092;11.842;2024-03-07T01:55:30;95678.41;;;6.28;75.05
30682;BME280;17439;48.092;11.842;2024-03-07T01:57:59;95685.97;;;6.26;74.61
30682;BME280;17439;48.092;11.842;2024-03-07T02:00:26;95679.78;;;6.25;74.98
30682;BME280;17439;48.092;11.842;2024-03-07T02:02:53;95674.41;;;6.25;74.99
30682;BME280;17439;48.092;11.842;2024-03-07T02:05:21;95676.28;;;6.25;75.07
30682;BME280;17439;48.092;11.842;2024-03-07T02:07:48;95673.59;;;6.25;75.34
30682;BME280;17439;48.092;11.842;2024-03-07T02:10:15;95670.91;;;6.25;75.18
30682;BME280;17439;48.092;11.842;2024-03-07T02:12:41;95665.50;;;6.25;75.20
30682;BME280;17439;48.092;11.842;2024-03-07T02:15:08;95670.91;;;6.25;75.39
30682;BME280;17439;48.092;11.842;2024-03-07T02:17:36;95672.50;;;6.26;75.37
30682;BME280;17439;48.092;11.842;2024-03-07T02:20:04;95667.66;;;6.28;75.50
30682;BME280;17439;48.092;11.842;2024-03-07T02:22:31;95663.38;;;6.27;75.53
30682;BME280;17439;48.092;11.842;2024-03-07T02:24:58;95664.97;;;6.28;75.55
30682;BME280;17439;48.092;11.842;2024-03-07T02:27:24;95660.41;;;6.28;75.46
30682;BME280;17439;48.092;11.842;2024-03-07T02:29:51;95652.00;;;6.30;75.74
30682;BME280;17439;48.092;11.842;2024-03-07T02:32:18;95654.44;;;6.31;75.55
30682;BME280;17439;48.092;11.842;2024-03-07T02:34:45;95649.88;;;6.32;75.66
30682;BME280;17439;48.092;11.842;2024-03-07T02:37:11;95646.34;;;6.31;75.47
30682;BME280;17439;48.092;11.842;2024-03-07T02:39:38;95654.97;;;6.33;75.70
30682;BME280;17439;48.092;11.842;2024-03-07T02:42:05;95649.31;;;6.35;75.60
30682;BME280;17439;48.092;11.842;2024-03-07T02:44:32;95654.41;;;6.37;75.63
30682;BME280;17439;48.092;11.842;2024-03-07T02:46:58;95647.13;;;6.37;75.83
30682;BME280;17439;48.092;11.842;2024-03-07T02:49:25;95651.44;;;6.38;75.82
30682;BME280;17439;48.092;11.842;2024-03-07T02:51:52;95656.56;;;6.40;75.56
30682;BME280;17439;48.092;11.842;2024-03-07T02:54:18;95648.19;;;6.41;75.52
30682;BME280;17439;48.092;11.842;2024-03-07T02:56:45;95648.19;;;6.41;75.35
30682;BME280;17439;48.092;11.842;2024-03-07T02:59:12;95651.69;;;6.42;75.55
30682;BME280;17439;48.092;11.842;2024-03-07T03:01:39;95646.81;;;6.44;75.33
30682;BME280;17439;48.092;11.842;2024-03-07T03:04:06;95648.19;;;6.41;75.14
30682;BME280;17439;48.092;11.842;2024-03-07T03:06:33;95639.00;;;6.42;75.22
30682;BME280;17439;48.092;11.842;2024-03-07T03:08:59;95638.50;;;6.40;75.24
30682;BME280;17439;48.092;11.842;2024-03-07T03:11:26;95644.16;;;6.39;75.16
30682;BME280;17439;48.092;11.842;2024-03-07T03:13:53;95643.09;;;6.40;75.11
30682;BME280;17439;48.092;11.842;2024-03-07T03:16:20;95640.69;;;6.38;75.23
30682;BME280;17439;48.092;11.842;2024-03-07T03:19:06;95637.44;;;6.36;75.43
30682;BME280;17439;48.092;11.842;2024-03-07T03:21:33;95647.13;;;6.37;75.54
30682;BME280;17439;48.092;11.842;2024-03-07T03:24:00;95644.97;;;6.39;75.60
30682;BME280;17439;48.092;11.842;2024-03-07T03:26:27;95646.06;;;6.38;75.56
30682;BME280;17439;48.092;11.842;2024-03-07T03:28:53;95643.38;;;6.38;75.53
30682;BME280;17439;48.092;11.842;2024-03-07T03:31:20;95642.25;;;6.39;75.62
30682;BME280;17439;48.092;11.842;2024-03-07T03:33:47;95645.78;;;6.40;75.72
30682;BME280;17439;48.092;11.842;2024-03-07T03:36:14;95642.81;;;6.41;75.93
30682;BME280;17439;48.092;11.842;2024-03-07T03:38:40;95644.41;;;6.42;75.87
30682;BME280;17439;48.092;11.842;2024-03-07T03:41:07;95641.72;;;6.42;76.16
30682;BME280;17439;48.092;11.842;2024-03-07T03:43:34;95639.56;;;6.44;75.90
30682;BME280;17439;48.092;11.842;2024-03-07T03:46:00;95637.38;;;6.46;75.95
30682;BME280;17439;48.092;11.842;2024-03-07T03:48:27;95640.88;;;6.47;76.02
30682;BME280;17439;48.092;11.842;2024-03-07T03:50:54;95645.19;;;6.48;75.98
30682;BME280;17439;48.092;11.842;2024-03-07T03:53:21;95639.53;;;6.49;75.82
30682;BME280;17439;48.092;11.842;2024-03-07T03:55:48;95634.94;;;6.50;75.68
30682;BME280;17439;48.092;11.842;2024-03-07T03:58:14;95643.53;;;6.52;75.76
30682;BME280;17439;48.092;11.842;2024-03-07T04:00:41;95636.56;;;6.51;75.78
30682;BME280;17439;48.092;11.842;2024-03-07T04:03:08;95631.97;;;6.51;75.59
30682;BME280;17439;48.092;11.842;2024-03-07T04:05:34;95631.97;;;6.51;75.50
30682;BME280;17439;48.092;11.842;2024-03-07T04:08:01;95631.97;;;6.51;75.43
30682;BME280;17439;48.092;11.842;2024-03-07T04:10:28;95625.78;;;6.51;75.27
30682;BME280;17439;48.092;11.842;2024-03-07T04:12:55;95638.69;;;6.49;75.35
30682;BME280;17439;48.092;11.842;2024-03-07T04:15:22;95643.28;;;6.48;75.41
30682;BME280;17439;48.092;11.842;2024-03-07T04:17:48;95629.31;;;6.46;75.44
30682;BME280;17439;48.092;11.842;2024-03-07T04:20:15;95630.91;;;6.47;75.62
30682;BME280;17439;48.092;11.842;2024-03-07T04:22:42;95629.31;;;6.46;75.56
30682;BME280;17439;48.092;11.842;2024-03-07T04:25:09;95632.00;;;6.46;75.67
30682;BME280;17439;48.092;11.842;2024-03-07T04:27:36;95634.41;;;6.48;75.95
30682;BME280;17439;48.092;11.842;2024-03-07T04:30:04;95632.78;;;6.47;75.67
30682;BME280;17439;48.092;11.842;2024-03-07T04:32:31;95636.28;;;6.47;75.76
30682;BME280;17439;48.092;11.842;2024-03-07T04:34:58;95630.91;;;6.47;75.76
30682;BME280;17439;48.092;11.842;2024-03-07T04:37:24;95637.91;;;6.48;76.05
30682;BME280;17439;48.092;11.842;2024-03-07T04:39:51;95632.53;;;6.48;76.14
30682;BME280;17439;48.092;11.842;2024-03-07T04:42:18;95626.84;;;6.50;76.02
30682;BME280;17439;48.092;11.842;2024-03-07T04:44:45;95627.66;;;6.50;75.91
30682;BME280;17439;48.092;11.842;2024-03-07T04:47:11;95630.34;;;6.50;76.14
30682;BME280;17439;48.092;11.842;2024-03-07T04:49:38;95629.78;;;6.53;76.10
30682;BME280;17439;48.092;11.842;2024-03-07T04:52:05;95627.09;;;6.53;76.52
30682;BME280;17439;48.092;11.842;2024-03-07T04:54:32;95623.03;;;6.56;76.34
30682;BME280;17439;48.092;11.842;2024-03-07T04:56:59;95633.25;;;6.59;76.60
30682;BME280;17439;48.092;11.842;2024-03-07T04:59:25;95630.78;;;6.63;76.80
30682;BME280;17439;48.092;11.842;2024-03-07T05:01:52;95635.34;;;6.67;76.87
30682;BME280;17439;48.092;11.842;2024-03-07T05:04:19;95635.56;;;6.71;76.63
30682;BME280;17439;48.092;11.842;2024-03-07T05:06:46;95635.84;;;6.75;76.21
30682;BME280;17439;48.092;11.842;2024-03-07T05:09:12;95635.28;;;6.78;76.18
30682;BME280;17439;48.092;11.842;2024-03-07T05:11:39;95634.69;;;6.81;75.99
30682;BME280;17439;48.092;11.842;2024-03-07T05:14:06;95639.81;;;6.82;75.96
30682;BME280;17439;48.092;11.842;2024-03-07T05:16:33;95639.50;;;6.84;75.79
30682;BME280;17439;48.092;11.842;2024-03-07T05:18:59;95634.66;;;6.86;75.70
30682;BME280;17439;48.092;11.842;2024-03-07T05:21:26;95633.28;;;6.88;75.40
30682;BME280;17439;48.092;11.842;2024-03-07T05:23:53;95633.00;;;6.90;75.25
30682;BME280;17439;48.092;11.842;2024-03-07T05:26:20;95633.81;;;6.90;74.88
30682;BME280;17439;48.092;11.842;2024-03-07T05:28:47;95633.00;;;6.90;74.68
30682;BME280;17439;48.092;11.842;2024-03-07T05:31:13;95627.63;;;6.90;74.76
30682;BME280;17439;48.092;11.842;2024-03-07T05:33:40;95633.28;;;6.88;74.61
30682;BME280;17439;48.092;11.842;2024-03-07T05:36:07;95637.59;;;6.89;74.79
30682;BME280;17439;48.092;11.842;2024-03-07T05:38:34;95632.22;;;6.89;74.57
30682;BME280;17439;48.092;11.842;2024-03-07T05:41:01;95636.25;;;6.87;74.32
30682;BME280;17439;48.092;11.842;2024-03-07T05:43:27;95644.34;;;6.87;74.19
30682;BME280;17439;48.092;11.842;2024-03-07T05:45:54;95645.72;;;6.84;74.39
30682;BME280;17439;48.092;11.842;2024-03-07T05:48:21;95639.81;;;6.82;74.13
30682;BME280;17439;48.092;11.842;2024-03-07T05:50:48;95637.38;;;6.81;74.26
30682;BME280;17439;48.092;11.842;2024-03-07T05:53:14;95637.69;;;6.79;74.22
30682;BME280;17439;48.092;11.842;2024-03-07T05:55:41;95645.22;;;6.77;74.38
30682;BME280;17439;48.092;11.842;2024-03-07T05:58:08;95646.34;;;6.76;74.37
30682;BME280;17439;48.092;11.842;2024-03-07T06:00:35;95644.72;;;6.75;74.45
30682;BME280;17439;48.092;11.842;2024-03-07T06:03:02;95648.22;;;6.76;74.63
30682;BME280;17439;48.092;11.842;2024-03-07T06:05:29;95643.66;;;6.76;74.90
30682;BME280;17439;48.092;11.842;2024-03-07T06:07:55;95642.81;;;6.76;74.84
30682;BME280;17439;48.092;11.842;2024-03-07T06:10:24;95644.44;;;6.77;74.60
30682;BME280;17439;48.092;11.842;2024-03-07T06:12:52;95645.22;;;6.77;74.85
30682;BME280;17439;48.092;11.842;2024-03-07T06:15:37;95644.44;;;6.77;74.67
30682;BME280;17439;48.092;11.842;2024-03-07T06:18:05;95652.53;;;6.77;74.67
30682;BME280;17439;48.092;11.842;2024-03-07T06:20:32;95646.06;;;6.78;74.88
30682;BME280;17439;48.092;11.842;2024-03-07T06:22:59;95646.84;;;6.78;74.55
30682;BME280;17439;48.092;11.842;2024-03-07T06:25:25;95649.56;;;6.78;74.37
30682;BME280;17439;48.092;11.842;2024-03-07T06:27:52;95641.97;;;6.80;74.09
30682;BME280;17439;48.092;11.842;2024-03-07T06:30:19;95651.97;;;6.80;73.78
30682;BME280;17439;48.092;11.842;2024-03-07T06:32:45;95655.44;;;6.80;73.81
30682;BME280;17439;48.092;11.842;2024-03-07T06:35:12;95651.44;;;6.78;73.83
30682;BME280;17439;48.092;11.842;2024-03-07T06:37:39;95642.81;;;6.76;73.90
30682;BME280;17439;48.092;11.842;2024-03-07T06:40:06;95649.31;;;6.75;74.29
30682;BME280;17439;48.092;11.842;2024-03-07T06:42:33;95643.38;;;6.72;74.38
30682;BME280;17439;48.092;11.842;2024-03-07T06:45:00;95643.66;;;6.76;74.75
30682;BME280;17439;48.092;11.842;2024-03-07T06:47:27;95650.13;;;6.75;74.48
30682;BME280;17439;48.092;11.842;2024-03-07T06:49:53;95645.50;;;6.76;73.92
30682;BME280;17439;48.092;11.842;2024-03-07T06:52:20;95649.31;;;6.75;74.04
30682;BME280;17439;48.092;11.842;2024-03-07T06:54:47;95646.63;;;6.75;74.03
30682;BME280;17439;48.092;11.842;2024-03-07T06:57:17;95648.78;;;6.72;73.77
30682;BME280;17439;48.092;11.842;2024-03-07T06:59:43;95652.28;;;6.73;74.41
30682;BME280;17439;48.092;11.842;2024-03-07T07:02:10;95658.19;;;6.75;74.62
30682;BME280;17439;48.092;11.842;2024-03-07T07:04:37;95652.81;;;6.75;74.70
30682;BME280;17439;48.092;11.842;2024-03-07T07:07:04;95651.72;;;6.76;74.75
30682;BME280;17439;48.092;11.842;2024-03-07T07:09:30;95649.84;;;6.77;74.69
30682;BME280;17439;48.092;11.842;2024-03-07T07:11:57;95657.63;;;6.78;74.92
30682;BME280;17439;48.092;11.842;2024-03-07T07:14:24;95661.34;;;6.82;74.54
30682;BME280;17439;48.092;11.842;2024-03-07T07:16:51;95662.97;;;6.83;74.37
30682;BME280;17439;48.092;11.842;2024-03-07T07:19:17;95653.28;;;6.82;74.42
30682;BME280;17439;48.092;11.842;2024-03-07T07:21:44;95650.56;;;6.82;74.22
30682;BME280;17439;48.092;11.842;2024-03-07T07:24:11;95654.38;;;6.81;74.37
30682;BME280;17439;48.092;11.842;2024-03-07T07:26:37;95652.47;;;6.82;74.33
30682;BME280;17439;48.092;11.842;2024-03-07T07:29:04;95655.97;;;6.82;74.16
30682;BME280;17439;48.092;11.842;2024-03-07T07:31:31;95654.63;;;6.85;74.06
30682;BME280;17439;48.092;11.842;2024-03-07T07:33:58;95648.72;;;6.83;74.00
30682;BME280;17439;48.092;11.842;2024-03-07T07:36:25;95646.81;;;6.83;73.88
30682;BME280;17439;48.092;11.842;2024-03-07T07:38:56;95654.09;;;6.83;73.91
30682;BME280;17439;48.092;11.842;2024-03-07T07:41:22;95648.72;;;6.83;73.76
30682;BME280;17439;48.092;11.842;2024-03-07T07:43:49;95647.88;;;6.82;73.84
30682;BME280;17439;48.092;11.842;2024-03-07T07:46:16;95656.22;;;6.86;74.00
30682;BME280;17439;48.092;11.842;2024-03-07T07:48:43;95651.13;;;6.84;73.75
30682;BME280;17439;48.092;11.842;2024-03-07T07:51:10;95652.72;;;6.85;74.23
30682;BME280;17439;48.092;11.842;2024-03-07T07:53:37;95648.94;;;6.86;74.31
30682;BME280;17439;48.092;11.842;2024-03-07T07:56:05;95654.34;;;6.86;74.46
30682;BME280;17439;48.092;11.842;2024-03-07T07:58:31;95649.47;;;6.88;74.73
30682;BME280;17439;48.092;11.842;2024-03-07T08:00:58;95653.22;;;6.93;74.77
30682;BME280;17439;48.092;11.842;2024-03-07T08:03:25;95651.53;;;6.97;74.31
30682;BME280;17439;48.092;11.842;2024-03-07T08:05:51;95651.25;;;6.98;74.46
30682;BME280;17439;48.092;11.842;2024-03-07T08:08:18;95651.25;;;7.03;74.30
30682;BME280;17439;48.092;11.842;2024-03-07T08:10:45;95645.78;;;7.08;73.62
30682;BME280;17439;48.092;11.842;2024-03-07T08:13:13;95643.88;;;7.09;73.66
30682;BME280;17439;48.092;11.842;2024-03-07T08:15:40;95651.19;;;7.08;73.98
30682;BME280;17439;48.092;11.842;2024-03-07T08:18:07;95647.13;;;7.11;74.01
30682;BME280;17439;48.092;11.842;2024-03-07T08:20:35;95650.84;;;7.15;73.49
30682;BME280;17439;48.092;11.842;2024-03-07T08:23:01;95642.19;;;7.18;73.29
30682;BME280;17439;48.092;11.842;2024-03-07T08:25:29;95648.91;;;7.21;72.30
30682;BME280;17439;48.092;11.842;2024-03-07T08:27:57;95646.50;;;7.19;72.32
30682;BME280;17439;48.092;11.842;2024-03-07T08:30:24;95643.00;;;7.19;72.92
30682;BME280;17439;48.092;11.842;2024-03-07T08:32:53;95647.31;;;7.20;72.90
30682;BME280;17439;48.092;11.842;2024-03-07T08:35:20;95648.91;;;7.21;72.89
30682;BME280;17439;48.092;11.842;2024-03-07T08:37:48;95645.94;;;7.22;72.96
30682;BME280;17439;48.092;11.842;2024-03-07T08:40:16;95636.75;;;7.23;72.61
30682;BME280;17439;48.092;11.842;2024-03-07T08:42:42;95639.72;;;7.22;72.77
30682;BME280;17439;48.092;11.842;2024-03-07T08:45:09;95640.56;;;7.22;73.11
30682;BME280;17439;48.092;11.842;2024-03-07T08:47:37;95637.56;;;7.24;73.21
30682;BME280;17439;48.092;11.842;2024-03-07T08:50:04;95636.00;;;7.18;73.04
30682;BME280;17439;48.092;11.842;2024-03-07T08:52:31;95634.03;;;7.23;74.38
30682;BME280;17439;48.092;11.842;2024-03-07T08:54:58;95637.00;;;7.27;74.46
30682;BME280;17439;48.092;11.842;2024-03-07T08:57:25;95638.31;;;7.30;74.63
30682;BME280;17439;48.092;11.842;2024-03-07T08:59:51;95637.69;;;7.38;74.01
30682;BME280;17439;48.092;11.842;2024-03-07T09:02:19;95636.81;;;7.42;72.66
30682;BME280;17439;48.092;11.842;2024-03-07T09:04:45;95635.22;;;7.41;72.80
30682;BME280;17439;48.092;11.842;2024-03-07T09:07:12;95636.53;;;7.44;72.56
30682;BME280;17439;48.092;11.842;2024-03-07T09:09:39;95636.47;;;7.49;71.74
30682;BME280;17439;48.092;11.842;2024-03-07T09:12:06;95637.88;;;7.47;71.86
30682;BME280;17439;48.092;11.842;2024-03-07T09:14:33;95632.75;;;7.45;72.41
30682;BME280;17439;48.092;11.842;2024-03-07T09:16:59;95635.41;;;7.50;71.96
30682;BME280;17439;48.092;11.842;2024-03-07T09:19:26;95632.13;;;7.53;71.95
30682;BME280;17439;48.092;11.842;2024-03-07T09:21:53;95621.06;;;7.55;72.80
30682;BME280;17439;48.092;11.842;2024-03-07T09:24:20;95628.28;;;7.59;72.99
30682;BME280;17439;48.092;11.842;2024-03-07T09:26:50;95620.91;;;7.65;73.46
30682;BME280;17439;48.092;11.842;2024-03-07T09:29:20;95629.19;;;7.74;73.36
30682;BME280;17439;48.092;11.842;2024-03-07T09:31:49;95617.25;;;7.80;72.96
30682;BME280;17439;48.092;11.842;2024-03-07T09:34:16;95614.72;;;7.89;71.98
30682;BME280;17439;48.092;11.842;2024-03-07T09:36:42;95614.94;;;7.92;71.61
30682;BME280;17439;48.092;11.842;2024-03-07T09:39:09;95622.75;;;7.94;71.94
30682;BME280;17439;48.092;11.842;2024-03-07T09:41:36;95626.25;;;7.94;72.04
30682;BME280;17439;48.092;11.842;2024-03-07T09:44:03;95621.66;;;7.95;72.41
30682;BME280;17439;48.092;11.842;2024-03-07T09:46:31;95626.31;;;7.89;73.21
30682;BME280;17439;48.092;11.842;2024-03-07T09:48:58;95620.56;;;7.96;72.85
30682;BME280;17439;48.092;11.842;2024-03-07T09:51:25;95614.81;;;8.03;72.19
30682;BME280;17439;48.092;11.842;2024-03-07T09:53:56;95625.81;;;8.06;71.75
30682;BME280;17439;48.092;11.842;2024-03-07T09:56:24;95619.03;;;8.09;71.05
30682;BME280;17439;48.092;11.842;2024-03-07T09:58:52;95623.06;;;8.11;70.01
30682;BME280;17439;48.092;11.842;2024-03-07T10:01:20;95624.66;;;8.12;69.02
30682;BME280;17439;48.092;11.842;2024-03-07T10:03:48;95628.78;;;8.10;68.75
30682;BME280;17439;48.092;11.842;2024-03-07T10:06:16;95621.81;;;8.04;69.96
30682;BME280;17439;48.092;11.842;2024-03-07T10:08:44;95620.22;;;8.03;70.52
30682;BME280;17439;48.092;11.842;2024-03-07T10:11:10;95625.59;;;8.03;71.04
30682;BME280;17439;48.092;11.842;2024-03-07T10:13:37;95625.53;;;8.08;71.29
30682;BME280;17439;48.092;11.842;2024-03-07T10:16:04;95626.06;;;8.10;71.73
30682;BME280;17439;48.092;11.842;2024-03-07T10:18:31;95624.09;;;8.15;71.70
30682;BME280;17439;48.092;11.842;2024-03-07T10:20:58;95627.00;;;8.19;71.42
30682;BME280;17439;48.092;11.842;2024-03-07T10:26:15;95621.56;;;8.24;73.02
30682;BME280;17439;48.092;11.842;2024-03-07T10:28:42;95617.69;;;8.30;73.83
30682;BME280;17439;48.092;11.842;2024-03-07T10:31:09;95625.13;;;8.39;74.34
30682;BME280;17439;48.092;11.842;2024-03-07T10:33:40;95620.72;;;8.48;73.59
30682;BME280;17439;48.092;11.842;2024-03-07T10:36:10;95619.47;;;8.59;74.04
30682;BME280;17439;48.092;11.842;2024-03-07T10:38:37;95617.38;;;8.70;74.11
30682;BME280;17439;48.092;11.842;2024-03-07T10:41:06;95620.81;;;8.76;73.38
30682;BME280;17439;48.092;11.842;2024-03-07T10:43:36;95623.88;;;8.88;73.82
30682;BME280;17439;48.092;11.842;2024-03-07T10:46:04;95610.75;;;8.95;72.85
30682;BME280;17439;48.092;11.842;2024-03-07T10:48:36;95615.28;;;9.00;72.11
30682;BME280;17439;48.092;11.842;2024-03-07T10:53:35;95614.28;;;9.10;72.78
30682;BME280;17439;48.092;11.842;2024-03-07T10:59:19;95605.38;;;9.09;70.69
30682;BME280;17439;48.092;11.842;2024-03-07T11:01:53;95595.88;;;9.12;70.43
30682;BME280;17439;48.092;11.842;2024-03-07T11:04:24;95588.56;;;9.12;70.91
30682;BME280;17439;48.092;11.842;2024-03-07T11:06:51;95595.28;;;9.15;70.57
30682;BME280;17439;48.092;11.842;2024-03-07T11:09:18;95591.47;;;9.16;71.46
30682;BME280;17439;48.092;11.842;2024-03-07T11:11:46;95592.50;;;9.20;71.91
30682;BME280;17439;48.092;11.842;2024-03-07T11:14:13;95588.06;;;9.24;72.32
30682;BME280;17439;48.092;11.842;2024-03-07T11:16:41;95588.50;;;9.31;72.80
30682;BME280;17439;48.092;11.842;2024-03-07T11:19:18;95583.47;;;9.38;70.30
30682;BME280;17439;48.092;11.842;2024-03-07T11:21:45;95586.59;;;9.46;73.73
30682;BME280;17439;48.092;11.842;2024-03-07T11:24:25;95579.69;;;9.53;70.02
30682;BME280;17439;48.092;11.842;2024-03-07T11:26:53;95580.78;;;9.66;74.75
30682;BME280;17439;48.092;11.842;2024-03-07T11:32:08;95575.03;;;9.95;75.58
30682;BME280;17439;48.092;11.842;2024-03-07T11:34:37;95564.97;;;10.10;72.86
30682;BME280;17439;48.092;11.842;2024-03-07T11:37:05;95561.75;;;10.22;72.58
30682;BME280;17439;48.092;11.842;2024-03-07T11:44:48;95568.34;;;10.29;67.17
30682;BME280;17439;48.092;11.842;2024-03-07T11:47:15;95561.44;;;10.23;67.75
30682;BME280;17439;48.092;11.842;2024-03-07T11:49:42;95559.16;;;10.16;68.26
30682;BME280;17439;48.092;11.842;2024-03-07T11:52:08;95557.38;;;10.12;68.86
30682;BME280;17439;48.092;11.842;2024-03-07T11:54:35;95556.66;;;10.06;69.20
30682;BME280;17439;48.092;11.842;2024-03-07T11:57:02;95552.94;;;10.02;69.45
30682;BME280;17439;48.092;11.842;2024-03-07T11:59:29;95553.59;;;9.99;69.63
30682;BME280;17439;48.092;11.842;2024-03-07T12:01:56;95548.47;;;9.97;69.80
30682;BME280;17439;48.092;11.842;2024-03-07T12:04:23;95551.78;;;9.94;70.22
30682;BME280;17439;48.092;11.842;2024-03-07T12:06:51;95542.84;;;9.94;69.91
30682;BME280;17439;48.092;11.842;2024-03-07T12:09:18;95545.53;;;9.94;70.31
30682;BME280;17439;48.092;11.842;2024-03-07T12:11:44;95540.34;;;9.97;68.99
30682;BME280;17439;48.092;11.842;2024-03-07T12:14:12;95541.44;;;9.96;69.10
30682;BME280;17439;48.092;11.842;2024-03-07T12:16:39;95535.72;;;9.98;69.59
30682;BME280;17439;48.092;11.842;2024-03-07T12:19:06;95541.13;;;9.98;69.68
30682;BME280;17439;48.092;11.842;2024-03-07T12:21:32;95540.53;;;10.01;69.91
30682;BME280;17439;48.092;11.842;2024-03-07T12:23:59;95534.50;;;10.04;70.48
30682;BME280;17439;48.092;11.842;2024-03-07T12:26:26;95533.28;;;10.10;70.92
30682;BME280;17439;48.092;11.842;2024-03-07T12:28:53;95539.91;;;10.18;71.30
30682;BME280;17439;48.092;11.842;2024-03-07T12:31:20;95534.03;;;10.25;71.29
30682;BME280;17439;48.092;11.842;2024-03-07T12:33:47;95526.00;;;10.33;71.73
30682;BME280;17439;48.092;11.842;2024-03-07T12:36:14;95531.50;;;10.42;71.46
30682;BME280;17439;48.092;11.842;2024-03-07T12:38:41;95528.22;;;10.54;71.63
30682;BME280;17439;48.092;11.842;2024-03-07T12:41:10;95519.84;;;10.64;71.14
30682;BME280;17439;48.092;11.842;2024-03-07T12:43:37;95515.25;;;10.74;70.71
30682;BME280;17439;48.092;11.842;2024-03-07T12:46:05;95510.69;;;10.83;69.61
30682;BME280;17439;48.092;11.842;2024-03-07T12:48:32;95506.13;;;10.92;70.47
30682;BME280;17439;48.092;11.842;2024-03-07T12:50:59;95505.19;;;10.97;69.83
30682;BME280;17439;48.092;11.842;2024-03-07T12:53:29;95508.59;;;11.02;69.10
30682;BME280;17439;48.092;11.842;2024-03-07T12:55:56;95505.56;;;11.04;68.77
30682;BME280;17439;48.092;11.842;2024-03-07T12:58:23;95501.53;;;11.01;68.33
30682;BME280;17439;48.092;11.842;2024-03-07T13:00:50;95506.19;;;11.01;68.27
30682;BME280;17439;48.092;11.842;2024-03-07T13:03:17;95504.09;;;10.98;67.87
30682;BME280;17439;48.092;11.842;2024-03-07T13:05:44;95502.16;;;10.98;64.24
30682;BME280;17439;48.092;11.842;2024-03-07T13:08:11;95497.69;;;10.94;62.49
30682;BME280;17439;48.092;11.842;2024-03-07T13:10:41;95500.97;;;10.82;63.56
30682;BME280;17439;48.092;11.842;2024-03-07T13:13:09;95495.50;;;10.73;64.23
30682;BME280;17439;48.092;11.842;2024-03-07T13:15:39;95503.06;;;10.62;64.95